Terminal Aerodrome Forecast
Issued by NWS

Home | Current Version | Previous Version | Text Only | Print | Product List | Glossary On
Versions: 1 2 3 4 5 6 7 8 9 10 11 12 13 14 15 16
983
FTUS43 KGRB 252325
TAFCWA
TAF
KCWA 252325Z 2600/2624 10012G20KT 6SM -SHRA SCT035 OVC070
      TEMPO 2600/2603 3SM -TSRA OVC025CB
     FM260500 16005KT 5SM BR SCT015 BKN030
     FM260900 VRB03KT 2SM BR OVC006
     FM261500 23008KT P6SM SCT018 OVC025 PROB30 2615/2619 3SM -TSRA
      OVC025CB
     FM261900 24009G15KT P6SM SCT025 BKN040=

USA.gov is the U.S. government's official web portal to all federal, state and local government web resources and services.